sensor_id;sensor_type;location;lat;lon;timestamp;P1;durP1;ratioP1;P2;durP2;ratioP2
72517;SDS011;60540;51.178;6.738;2023-02-22T00:00:24;46.05;;;17.85;;
72517;SDS011;60540;51.178;6.738;2023-02-22T00:05:50;48.67;;;15.63;;
72517;SDS011;60540;51.178;6.738;2023-02-22T00:08:19;45.65;;;16.33;;
72517;SDS011;60540;51.178;6.738;2023-02-22T00:10:46;53.40;;;15.85;;
72517;SDS011;60540;51.178;6.738;2023-02-22T00:13:16;39.97;;;14.38;;
72517;SDS011;60540;51.178;6.738;2023-02-22T00:15:43;43.20;;;14.23;;
72517;SDS011;60540;51.178;6.738;2023-02-22T00:18:13;47.95;;;15.93;;
72517;SDS011;60540;51.178;6.738;2023-02-22T00:20:40;47.05;;;15.23;;
72517;SDS011;60540;51.178;6.738;2023-02-22T00:23:07;48.70;;;15.18;;
72517;SDS011;60540;51.178;6.738;2023-02-22T00:25:37;40.20;;;13.63;;
72517;SDS011;60540;51.178;6.738;2023-02-22T00:28:03;34.33;;;12.80;;
72517;SDS011;60540;51.178;6.738;2023-02-22T00:30:29;35.85;;;13.23;;
72517;SDS011;60540;51.178;6.738;2023-02-22T00:35:23;36.63;;;11.90;;
72517;SDS011;60540;51.178;6.738;2023-02-22T00:37:51;37.30;;;13.18;;
72517;SDS011;60540;51.178;6.738;2023-02-22T00:40:20;37.08;;;13.68;;
72517;SDS011;60540;51.178;6.738;2023-02-22T00:42:47;29.48;;;12.07;;
72517;SDS011;60540;51.178;6.738;2023-02-22T00:45:17;35.80;;;12.45;;
72517;SDS011;60540;51.178;6.738;2023-02-22T00:47:44;35.40;;;13.13;;
72517;SDS011;60540;51.178;6.738;2023-02-22T00:50:10;27.88;;;11.18;;
72517;SDS011;60540;51.178;6.738;2023-02-22T00:52:36;37.22;;;12.38;;
72517;SDS011;60540;51.178;6.738;2023-02-22T00:55:04;33.25;;;11.60;;
72517;SDS011;60540;51.178;6.738;2023-02-22T00:57:32;32.03;;;10.82;;
72517;SDS011;60540;51.178;6.738;2023-02-22T01:00:02;37.58;;;11.98;;
72517;SDS011;60540;51.178;6.738;2023-02-22T01:02:37;31.17;;;11.75;;
72517;SDS011;60540;51.178;6.738;2023-02-22T01:07:30;27.55;;;10.10;;
72517;SDS011;60540;51.178;6.738;2023-02-22T01:09:55;31.58;;;10.90;;
72517;SDS011;60540;51.178;6.738;2023-02-22T01:12:22;25.17;;;10.65;;
72517;SDS011;60540;51.178;6.738;2023-02-22T01:14:47;29.63;;;11.38;;
72517;SDS011;60540;51.178;6.738;2023-02-22T01:17:13;33.67;;;11.68;;
72517;SDS011;60540;51.178;6.738;2023-02-22T01:19:39;27.02;;;9.93;;
72517;SDS011;60540;51.178;6.738;2023-02-22T01:22:07;22.65;;;9.73;;
72517;SDS011;60540;51.178;6.738;2023-02-22T01:24:33;27.52;;;10.57;;
72517;SDS011;60540;51.178;6.738;2023-02-22T01:26:59;25.10;;;9.40;;
72517;SDS011;60540;51.178;6.738;2023-02-22T01:29:26;25.63;;;10.00;;
72517;SDS011;60540;51.178;6.738;2023-02-22T01:31:53;24.92;;;9.38;;
72517;SDS011;60540;51.178;6.738;2023-02-22T01:36:46;23.48;;;9.18;;
72517;SDS011;60540;51.178;6.738;2023-02-22T01:39:12;30.40;;;10.05;;
72517;SDS011;60540;51.178;6.738;2023-02-22T01:41:37;26.63;;;9.85;;
72517;SDS011;60540;51.178;6.738;2023-02-22T01:46:52;26.73;;;10.10;;
72517;SDS011;60540;51.178;6.738;2023-02-22T01:49:19;30.50;;;9.70;;
72517;SDS011;60540;51.178;6.738;2023-02-22T01:51:46;30.52;;;10.80;;
72517;SDS011;60540;51.178;6.738;2023-02-22T01:56:45;28.67;;;11.20;;
72517;SDS011;60540;51.178;6.738;2023-02-22T02:01:40;27.33;;;10.52;;
72517;SDS011;60540;51.178;6.738;2023-02-22T02:04:19;29.20;;;10.23;;
72517;SDS011;60540;51.178;6.738;2023-02-22T02:06:51;26.48;;;10.63;;
72517;SDS011;60540;51.178;6.738;2023-02-22T02:11:46;22.55;;;9.43;;
72517;SDS011;60540;51.178;6.738;2023-02-22T02:14:12;24.90;;;9.77;;
72517;SDS011;60540;51.178;6.738;2023-02-22T02:16:42;45.97;;;10.05;;
72517;SDS011;60540;51.178;6.738;2023-02-22T02:19:19;31.70;;;11.07;;
72517;SDS011;60540;51.178;6.738;2023-02-22T02:21:54;25.60;;;10.00;;
72517;SDS011;60540;51.178;6.738;2023-02-22T02:33:11;24.63;;;9.52;;
72517;SDS011;60540;51.178;6.738;2023-02-22T02:36:00;26.80;;;9.55;;
72517;SDS011;60540;51.178;6.738;2023-02-22T02:44:02;24.15;;;9.52;;
72517;SDS011;60540;51.178;6.738;2023-02-22T02:46:30;23.90;;;8.30;;
72517;SDS011;60540;51.178;6.738;2023-02-22T02:49:00;29.70;;;10.95;;
72517;SDS011;60540;51.178;6.738;2023-02-22T02:51:31;30.45;;;10.93;;
72517;SDS011;60540;51.178;6.738;2023-02-22T02:53:59;32.25;;;11.00;;
72517;SDS011;60540;51.178;6.738;2023-02-22T02:56:26;32.75;;;10.65;;
72517;SDS011;60540;51.178;6.738;2023-02-22T02:58:52;27.83;;;10.27;;
72517;SDS011;60540;51.178;6.738;2023-02-22T03:01:20;24.60;;;9.63;;
72517;SDS011;60540;51.178;6.738;2023-02-22T03:04:16;24.38;;;10.43;;
72517;SDS011;60540;51.178;6.738;2023-02-22T03:09:37;32.00;;;10.05;;
72517;SDS011;60540;51.178;6.738;2023-02-22T03:15:21;30.40;;;10.82;;
72517;SDS011;60540;51.178;6.738;2023-02-22T03:18:07;29.75;;;11.48;;
72517;SDS011;60540;51.178;6.738;2023-02-22T03:20:40;31.92;;;10.85;;
72517;SDS011;60540;51.178;6.738;2023-02-22T03:23:14;26.08;;;10.02;;
72517;SDS011;60540;51.178;6.738;2023-02-22T03:25:47;35.08;;;11.60;;
72517;SDS011;60540;51.178;6.738;2023-02-22T03:28:16;31.13;;;10.55;;
72517;SDS011;60540;51.178;6.738;2023-02-22T03:30:44;33.83;;;11.48;;
72517;SDS011;60540;51.178;6.738;2023-02-22T03:33:14;43.47;;;12.35;;
72517;SDS011;60540;51.178;6.738;2023-02-22T03:35:58;33.58;;;11.10;;
72517;SDS011;60540;51.178;6.738;2023-02-22T03:38:27;33.97;;;11.18;;
72517;SDS011;60540;51.178;6.738;2023-02-22T03:40:55;44.00;;;12.05;;
72517;SDS011;60540;51.178;6.738;2023-02-22T03:43:26;31.73;;;10.77;;
72517;SDS011;60540;51.178;6.738;2023-02-22T03:45:55;35.33;;;12.13;;
72517;SDS011;60540;51.178;6.738;2023-02-22T03:50:49;33.95;;;12.63;;
72517;SDS011;60540;51.178;6.738;2023-02-22T03:53:16;32.95;;;12.32;;
72517;SDS011;60540;51.178;6.738;2023-02-22T03:55:43;37.30;;;13.75;;
72517;SDS011;60540;51.178;6.738;2023-02-22T03:58:09;34.92;;;11.38;;
72517;SDS011;60540;51.178;6.738;2023-02-22T04:00:36;32.05;;;12.38;;
72517;SDS011;60540;51.178;6.738;2023-02-22T04:03:02;34.67;;;13.27;;
72517;SDS011;60540;51.178;6.738;2023-02-22T04:05:28;41.10;;;13.02;;
72517;SDS011;60540;51.178;6.738;2023-02-22T04:07:54;35.47;;;12.55;;
72517;SDS011;60540;51.178;6.738;2023-02-22T04:10:21;33.00;;;12.90;;
72517;SDS011;60540;51.178;6.738;2023-02-22T04:12:48;29.63;;;11.13;;
72517;SDS011;60540;51.178;6.738;2023-02-22T04:15:16;28.65;;;11.75;;
72517;SDS011;60540;51.178;6.738;2023-02-22T04:17:44;28.85;;;11.13;;
72517;SDS011;60540;51.178;6.738;2023-02-22T04:20:10;27.70;;;10.55;;
72517;SDS011;60540;51.178;6.738;2023-02-22T04:22:38;28.90;;;12.38;;
72517;SDS011;60540;51.178;6.738;2023-02-22T04:25:04;29.65;;;11.50;;
72517;SDS011;60540;51.178;6.738;2023-02-22T04:27:30;28.25;;;11.52;;
72517;SDS011;60540;51.178;6.738;2023-02-22T04:29:56;31.25;;;11.57;;
72517;SDS011;60540;51.178;6.738;2023-02-22T04:32:22;28.52;;;11.25;;
72517;SDS011;60540;51.178;6.738;2023-02-22T04:34:47;28.25;;;11.60;;
72517;SDS011;60540;51.178;6.738;2023-02-22T04:37:13;29.63;;;10.90;;
72517;SDS011;60540;51.178;6.738;2023-02-22T04:39:39;29.45;;;10.98;;
72517;SDS011;60540;51.178;6.738;2023-02-22T04:42:05;28.67;;;10.43;;
72517;SDS011;60540;51.178;6.738;2023-02-22T04:44:31;34.03;;;11.93;;
72517;SDS011;60540;51.178;6.738;2023-02-22T04:46:56;31.77;;;11.63;;
72517;SDS011;60540;51.178;6.738;2023-02-22T04:49:22;28.55;;;11.13;;
72517;SDS011;60540;51.178;6.738;2023-02-22T04:51:48;27.33;;;11.82;;
72517;SDS011;60540;51.178;6.738;2023-02-22T04:54:14;32.70;;;11.35;;
72517;SDS011;60540;51.178;6.738;2023-02-22T04:56:42;28.17;;;10.70;;
72517;SDS011;60540;51.178;6.738;2023-02-22T04:59:08;30.63;;;11.38;;
72517;SDS011;60540;51.178;6.738;2023-02-22T05:01:34;33.63;;;12.00;;
72517;SDS011;60540;51.178;6.738;2023-02-22T05:04:01;32.78;;;12.82;;
72517;SDS011;60540;51.178;6.738;2023-02-22T05:06:27;33.63;;;11.98;;
72517;SDS011;60540;51.178;6.738;2023-02-22T05:08:53;31.80;;;11.85;;
72517;SDS011;60540;51.178;6.738;2023-02-22T05:11:19;36.10;;;13.20;;
72517;SDS011;60540;51.178;6.738;2023-02-22T05:13:45;38.83;;;14.32;;
72517;SDS011;60540;51.178;6.738;2023-02-22T05:16:10;34.13;;;14.05;;
72517;SDS011;60540;51.178;6.738;2023-02-22T05:18:36;36.80;;;12.82;;
72517;SDS011;60540;51.178;6.738;2023-02-22T05:21:02;31.58;;;12.65;;
72517;SDS011;60540;51.178;6.738;2023-02-22T05:23:28;32.33;;;11.48;;
72517;SDS011;60540;51.178;6.738;2023-02-22T05:25:54;32.85;;;12.70;;
72517;SDS011;60540;51.178;6.738;2023-02-22T05:28:19;34.75;;;13.30;;
72517;SDS011;60540;51.178;6.738;2023-02-22T05:30:45;39.17;;;13.98;;
72517;SDS011;60540;51.178;6.738;2023-02-22T05:33:11;34.28;;;12.95;;
72517;SDS011;60540;51.178;6.738;2023-02-22T05:35:37;38.65;;;13.95;;
72517;SDS011;60540;51.178;6.738;2023-02-22T05:38:03;45.65;;;14.98;;
72517;SDS011;60540;51.178;6.738;2023-02-22T05:40:29;35.80;;;14.02;;
72517;SDS011;60540;51.178;6.738;2023-02-22T05:42:56;36.85;;;14.57;;
72517;SDS011;60540;51.178;6.738;2023-02-22T05:45:22;35.13;;;14.50;;
72517;SDS011;60540;51.178;6.738;2023-02-22T05:47:52;36.83;;;14.13;;
72517;SDS011;60540;51.178;6.738;2023-02-22T05:50:18;33.72;;;13.35;;
72517;SDS011;60540;51.178;6.738;2023-02-22T05:52:44;34.90;;;14.65;;
72517;SDS011;60540;51.178;6.738;2023-02-22T05:55:12;36.58;;;13.68;;
72517;SDS011;60540;51.178;6.738;2023-02-22T05:57:38;34.97;;;13.73;;
72517;SDS011;60540;51.178;6.738;2023-02-22T06:00:04;39.67;;;14.27;;
72517;SDS011;60540;51.178;6.738;2023-02-22T06:02:31;33.70;;;13.38;;
72517;SDS011;60540;51.178;6.738;2023-02-22T06:04:57;35.17;;;14.98;;
72517;SDS011;60540;51.178;6.738;2023-02-22T06:07:24;35.45;;;13.30;;
72517;SDS011;60540;51.178;6.738;2023-02-22T06:09:49;30.00;;;13.27;;
72517;SDS011;60540;51.178;6.738;2023-02-22T06:12:15;32.05;;;13.27;;
72517;SDS011;60540;51.178;6.738;2023-02-22T06:14:41;38.78;;;15.05;;
72517;SDS011;60540;51.178;6.738;2023-02-22T06:17:10;34.33;;;12.98;;
72517;SDS011;60540;51.178;6.738;2023-02-22T06:19:37;34.35;;;13.68;;
72517;SDS011;60540;51.178;6.738;2023-02-22T06:22:03;29.52;;;13.38;;
72517;SDS011;60540;51.178;6.738;2023-02-22T06:24:29;28.63;;;12.48;;
72517;SDS011;60540;51.178;6.738;2023-02-22T06:26:55;24.88;;;11.45;;
72517;SDS011;60540;51.178;6.738;2023-02-22T06:31:49;24.20;;;10.35;;
72517;SDS011;60540;51.178;6.738;2023-02-22T06:34:14;20.52;;;9.85;;
72517;SDS011;60540;51.178;6.738;2023-02-22T06:36:40;25.42;;;10.65;;
72517;SDS011;60540;51.178;6.738;2023-02-22T06:39:06;23.45;;;10.95;;
72517;SDS011;60540;51.178;6.738;2023-02-22T06:41:36;21.55;;;10.13;;
72517;SDS011;60540;51.178;6.738;2023-02-22T06:44:02;24.90;;;10.98;;
72517;SDS011;60540;51.178;6.738;2023-02-22T06:46:28;25.38;;;11.15;;
72517;SDS011;60540;51.178;6.738;2023-02-22T06:48:53;23.27;;;11.93;;
72517;SDS011;60540;51.178;6.738;2023-02-22T06:51:19;28.13;;;11.68;;
72517;SDS011;60540;51.178;6.738;2023-02-22T06:53:46;23.52;;;11.50;;
72517;SDS011;60540;51.178;6.738;2023-02-22T06:56:12;25.08;;;12.13;;
72517;SDS011;60540;51.178;6.738;2023-02-22T06:58:37;26.90;;;11.80;;
72517;SDS011;60540;51.178;6.738;2023-02-22T07:01:03;29.25;;;11.30;;
72517;SDS011;60540;51.178;6.738;2023-02-22T07:03:30;25.25;;;11.13;;
72517;SDS011;60540;51.178;6.738;2023-02-22T07:05:56;28.30;;;11.90;;
72517;SDS011;60540;51.178;6.738;2023-02-22T07:08:22;24.83;;;11.15;;
72517;SDS011;60540;51.178;6.738;2023-02-22T07:10:48;24.83;;;11.27;;
72517;SDS011;60540;51.178;6.738;2023-02-22T07:13:14;22.67;;;11.75;;
72517;SDS011;60540;51.178;6.738;2023-02-22T07:15:40;27.35;;;12.60;;
72517;SDS011;60540;51.178;6.738;2023-02-22T07:18:06;26.52;;;12.25;;
72517;SDS011;60540;51.178;6.738;2023-02-22T07:20:32;22.13;;;11.00;;
72517;SDS011;60540;51.178;6.738;2023-02-22T07:22:58;23.42;;;11.55;;
72517;SDS011;60540;51.178;6.738;2023-02-22T07:25:24;26.45;;;11.77;;
72517;SDS011;60540;51.178;6.738;2023-02-22T07:27:50;24.30;;;11.43;;
72517;SDS011;60540;51.178;6.738;2023-02-22T07:32:45;22.88;;;11.32;;
72517;SDS011;60540;51.178;6.738;2023-02-22T07:35:18;18.98;;;10.73;;
72517;SDS011;60540;51.178;6.738;2023-02-22T07:37:48;20.48;;;10.48;;
72517;SDS011;60540;51.178;6.738;2023-02-22T07:40:14;20.75;;;10.00;;
72517;SDS011;60540;51.178;6.738;2023-02-22T07:42:55;24.05;;;11.32;;
72517;SDS011;60540;51.178;6.738;2023-02-22T07:45:29;21.10;;;10.48;;
72517;SDS011;60540;51.178;6.738;2023-02-22T07:47:57;24.23;;;11.63;;
72517;SDS011;60540;51.178;6.738;2023-02-22T07:50:24;19.88;;;10.45;;
72517;SDS011;60540;51.178;6.738;2023-02-22T07:52:52;22.05;;;10.40;;
72517;SDS011;60540;51.178;6.738;2023-02-22T07:55:20;18.30;;;10.07;;
72517;SDS011;60540;51.178;6.738;2023-02-22T07:57:47;21.73;;;11.20;;
72517;SDS011;60540;51.178;6.738;2023-02-22T08:00:15;20.38;;;11.00;;
72517;SDS011;60540;51.178;6.738;2023-02-22T08:02:45;21.95;;;11.77;;
72517;SDS011;60540;51.178;6.738;2023-02-22T08:05:12;21.42;;;10.55;;
72517;SDS011;60540;51.178;6.738;2023-02-22T08:07:38;17.75;;;9.82;;
72517;SDS011;60540;51.178;6.738;2023-02-22T08:10:05;20.65;;;11.68;;
72517;SDS011;60540;51.178;6.738;2023-02-22T08:12:32;19.80;;;10.50;;
72517;SDS011;60540;51.178;6.738;2023-02-22T08:17:24;22.30;;;10.98;;
72517;SDS011;60540;51.178;6.738;2023-02-22T08:19:50;25.58;;;12.98;;
72517;SDS011;60540;51.178;6.738;2023-02-22T08:22:16;26.08;;;12.60;;
72517;SDS011;60540;51.178;6.738;2023-02-22T08:24:41;22.05;;;12.00;;
72517;SDS011;60540;51.178;6.738;2023-02-22T08:27:07;25.48;;;11.95;;
72517;SDS011;60540;51.178;6.738;2023-02-22T08:29:33;23.65;;;10.70;;
72517;SDS011;60540;51.178;6.738;2023-02-22T08:31:59;21.25;;;11.65;;
72517;SDS011;60540;51.178;6.738;2023-02-22T08:34:25;26.42;;;12.45;;
72517;SDS011;60540;51.178;6.738;2023-02-22T08:36:51;21.00;;;10.77;;
72517;SDS011;60540;51.178;6.738;2023-02-22T08:39:17;22.65;;;12.32;;
72517;SDS011;60540;51.178;6.738;2023-02-22T08:41:43;20.00;;;11.60;;
72517;SDS011;60540;51.178;6.738;2023-02-22T08:44:09;19.95;;;10.85;;
72517;SDS011;60540;51.178;6.738;2023-02-22T08:46:35;22.95;;;10.77;;
72517;SDS011;60540;51.178;6.738;2023-02-22T08:49:00;24.75;;;12.27;;
72517;SDS011;60540;51.178;6.738;2023-02-22T08:51:27;22.58;;;11.02;;
72517;SDS011;60540;51.178;6.738;2023-02-22T08:53:53;20.80;;;11.35;;
72517;SDS011;60540;51.178;6.738;2023-02-22T08:56:19;20.40;;;12.00;;
72517;SDS011;60540;51.178;6.738;2023-02-22T08:58:45;23.55;;;12.15;;
72517;SDS011;60540;51.178;6.738;2023-02-22T09:01:10;26.40;;;12.63;;
72517;SDS011;60540;51.178;6.738;2023-02-22T09:03:36;20.45;;;11.25;;
72517;SDS011;60540;51.178;6.738;2023-02-22T09:06:02;23.45;;;12.52;;
72517;SDS011;60540;51.178;6.738;2023-02-22T09:08:29;25.23;;;10.80;;
72517;SDS011;60540;51.178;6.738;2023-02-22T09:10:54;21.55;;;11.38;;
72517;SDS011;60540;51.178;6.738;2023-02-22T09:13:20;22.13;;;10.68;;
72517;SDS011;60540;51.178;6.738;2023-02-22T09:15:46;20.48;;;11.32;;
72517;SDS011;60540;51.178;6.738;2023-02-22T09:18:12;20.67;;;11.07;;
72517;SDS011;60540;51.178;6.738;2023-02-22T09:20:42;20.13;;;11.10;;
72517;SDS011;60540;51.178;6.738;2023-02-22T09:23:08;19.33;;;10.75;;
72517;SDS011;60540;51.178;6.738;2023-02-22T09:25:34;20.48;;;10.45;;
72517;SDS011;60540;51.178;6.738;2023-02-22T09:28:00;22.60;;;12.05;;
72517;SDS011;60540;51.178;6.738;2023-02-22T09:30:33;21.83;;;10.23;;
72517;SDS011;60540;51.178;6.738;2023-02-22T09:33:00;24.60;;;11.50;;
72517;SDS011;60540;51.178;6.738;2023-02-22T09:35:27;20.90;;;11.32;;
72517;SDS011;60540;51.178;6.738;2023-02-22T09:37:57;20.65;;;10.73;;
72517;SDS011;60540;51.178;6.738;2023-02-22T09:40:24;23.42;;;10.80;;
72517;SDS011;60540;51.178;6.738;2023-02-22T09:48:27;20.58;;;9.60;;
72517;SDS011;60540;51.178;6.738;2023-02-22T09:50:56;23.20;;;10.55;;
72517;SDS011;60540;51.178;6.738;2023-02-22T09:53:28;17.65;;;9.85;;
72517;SDS011;60540;51.178;6.738;2023-02-22T09:56:02;18.58;;;9.88;;
72517;SDS011;60540;51.178;6.738;2023-02-22T09:58:31;22.45;;;9.60;;
72517;SDS011;60540;51.178;6.738;2023-02-22T10:06:24;19.80;;;10.07;;
72517;SDS011;60540;51.178;6.738;2023-02-22T10:08:51;20.35;;;10.43;;
72517;SDS011;60540;51.178;6.738;2023-02-22T10:27:27;19.15;;;11.00;;
72517;SDS011;60540;51.178;6.738;2023-02-22T10:33:16;20.58;;;10.82;;
72517;SDS011;60540;51.178;6.738;2023-02-22T10:35:40;19.45;;;10.18;;
72517;SDS011;60540;51.178;6.738;2023-02-22T10:38:19;19.45;;;10.15;;
72517;SDS011;60540;51.178;6.738;2023-02-22T10:40:59;16.77;;;9.52;;
72517;SDS011;60540;51.178;6.738;2023-02-22T10:43:27;16.98;;;8.73;;
72517;SDS011;60540;51.178;6.738;2023-02-22T10:45:55;16.55;;;8.57;;
72517;SDS011;60540;51.178;6.738;2023-02-22T10:48:25;15.85;;;8.57;;
72517;SDS011;60540;51.178;6.738;2023-02-22T10:50:54;15.00;;;8.27;;
72517;SDS011;60540;51.178;6.738;2023-02-22T10:53:23;16.23;;;8.10;;
72517;SDS011;60540;51.178;6.738;2023-02-22T10:58:57;16.98;;;8.25;;
72517;SDS011;60540;51.178;6.738;2023-02-22T11:01:26;14.23;;;8.20;;
72517;SDS011;60540;51.178;6.738;2023-02-22T11:04:42;15.50;;;8.20;;
72517;SDS011;60540;51.178;6.738;2023-02-22T11:06:47;15.00;;;8.15;;
72517;SDS011;60540;51.178;6.738;2023-02-22T11:09:18;15.60;;;8.68;;
72517;SDS011;60540;51.178;6.738;2023-02-22T11:11:49;17.98;;;9.20;;
72517;SDS011;60540;51.178;6.738;2023-02-22T11:14:26;15.65;;;7.90;;
72517;SDS011;60540;51.178;6.738;2023-02-22T11:16:53;17.52;;;7.80;;
72517;SDS011;60540;51.178;6.738;2023-02-22T11:24:51;12.88;;;8.25;;
72517;SDS011;60540;51.178;6.738;2023-02-22T11:27:24;13.20;;;7.40;;
72517;SDS011;60540;51.178;6.738;2023-02-22T11:29:53;17.83;;;8.35;;
72517;SDS011;60540;51.178;6.738;2023-02-22T11:32:21;14.30;;;7.57;;
72517;SDS011;60540;51.178;6.738;2023-02-22T11:34:49;16.52;;;7.90;;
72517;SDS011;60540;51.178;6.738;2023-02-22T11:39:46;14.05;;;7.93;;
72517;SDS011;60540;51.178;6.738;2023-02-22T11:42:22;14.02;;;7.32;;
72517;SDS011;60540;51.178;6.738;2023-02-22T11:47:50;16.23;;;8.00;;
72517;SDS011;60540;51.178;6.738;2023-02-22T11:50:25;18.70;;;8.82;;
72517;SDS011;60540;51.178;6.738;2023-02-22T11:53:40;16.73;;;7.57;;
72517;SDS011;60540;51.178;6.738;2023-02-22T11:58:44;14.82;;;7.78;;
72517;SDS011;60540;51.178;6.738;2023-02-22T12:07:09;12.23;;;6.05;;
72517;SDS011;60540;51.178;6.738;2023-02-22T12:09:42;11.88;;;5.57;;
72517;SDS011;60540;51.178;6.738;2023-02-22T12:17:34;9.85;;;5.35;;
72517;SDS011;60540;51.178;6.738;2023-02-22T12:20:21;10.77;;;5.90;;
72517;SDS011;60540;51.178;6.738;2023-02-22T12:25:35;12.75;;;6.03;;
72517;SDS011;60540;51.178;6.738;2023-02-22T12:28:10;10.05;;;5.55;;
72517;SDS011;60540;51.178;6.738;2023-02-22T12:30:49;11.43;;;5.60;;
72517;SDS011;60540;51.178;6.738;2023-02-22T12:33:21;10.43;;;5.70;;
72517;SDS011;60540;51.178;6.738;2023-02-22T12:35:53;10.55;;;5.85;;
72517;SDS011;60540;51.178;6.738;2023-02-22T12:38:34;9.43;;;6.38;;
72517;SDS011;60540;51.178;6.738;2023-02-22T12:41:15;14.07;;;6.10;;
72517;SDS011;60540;51.178;6.738;2023-02-22T12:43:52;11.02;;;5.78;;
72517;SDS011;60540;51.178;6.738;2023-02-22T12:46:29;11.70;;;5.75;;
72517;SDS011;60540;51.178;6.738;2023-02-22T12:52:15;10.68;;;6.07;;
72517;SDS011;60540;51.178;6.738;2023-02-22T12:57:43;10.43;;;5.95;;
72517;SDS011;60540;51.178;6.738;2023-02-22T13:05:19;13.70;;;6.05;;
72517;SDS011;60540;51.178;6.738;2023-02-22T13:10:52;12.68;;;6.35;;
72517;SDS011;60540;51.178;6.738;2023-02-22T13:13:23;10.32;;;5.65;;
72517;SDS011;60540;51.178;6.738;2023-02-22T13:18:29;11.50;;;6.18;;
72517;SDS011;60540;51.178;6.738;2023-02-22T13:21:12;14.43;;;6.45;;
72517;SDS011;60540;51.178;6.738;2023-02-22T13:26:18;11.02;;;5.85;;
72517;SDS011;60540;51.178;6.738;2023-02-22T13:28:54;11.93;;;5.68;;
72517;SDS011;60540;51.178;6.738;2023-02-22T13:40:20;12.60;;;6.28;;
72517;SDS011;60540;51.178;6.738;2023-02-22T13:51:32;9.35;;;5.10;;
72517;SDS011;60540;51.178;6.738;2023-02-22T13:56:52;10.07;;;5.55;;
72517;SDS011;60540;51.178;6.738;2023-02-22T14:01:59;12.68;;;5.88;;
72517;SDS011;60540;51.178;6.738;2023-02-22T14:07:54;9.68;;;5.50;;
72517;SDS011;60540;51.178;6.738;2023-02-22T14:09:57;9.15;;;4.88;;
72517;SDS011;60540;51.178;6.738;2023-02-22T14:22:47;9.68;;;5.43;;
72517;SDS011;60540;51.178;6.738;2023-02-22T14:31:18;11.40;;;5.65;;
72517;SDS011;60540;51.178;6.738;2023-02-22T14:33:59;13.43;;;6.30;;
72517;SDS011;60540;51.178;6.738;2023-02-22T14:39:02;11.65;;;5.57;;
72517;SDS011;60540;51.178;6.738;2023-02-22T14:44:20;10.02;;;5.53;;
72517;SDS011;60540;51.178;6.738;2023-02-22T14:46:49;9.85;;;6.00;;
72517;SDS011;60540;51.178;6.738;2023-02-22T14:49:17;9.05;;;5.30;;
72517;SDS011;60540;51.178;6.738;2023-02-22T14:51:57;11.68;;;5.78;;
72517;SDS011;60540;51.178;6.738;2023-02-22T14:54:30;12.00;;;5.55;;
72517;SDS011;60540;51.178;6.738;2023-02-22T14:57:07;10.13;;;5.63;;
72517;SDS011;60540;51.178;6.738;2023-02-22T14:59:45;8.20;;;5.20;;
72517;SDS011;60540;51.178;6.738;2023-02-22T15:02:16;10.13;;;5.25;;
72517;SDS011;60540;51.178;6.738;2023-02-22T15:04:49;11.88;;;5.40;;
72517;SDS011;60540;51.178;6.738;2023-02-22T15:07:29;8.73;;;5.20;;
72517;SDS011;60540;51.178;6.738;2023-02-22T15:10:16;8.73;;;4.85;;
72517;SDS011;60540;51.178;6.738;2023-02-22T15:12:55;11.35;;;5.63;;
72517;SDS011;60540;51.178;6.738;2023-02-22T15:15:37;9.23;;;5.57;;
72517;SDS011;60540;51.178;6.738;2023-02-22T15:18:30;11.60;;;5.90;;
72517;SDS011;60540;51.178;6.738;2023-02-22T15:21:07;7.97;;;5.30;;
72517;SDS011;60540;51.178;6.738;2023-02-22T15:23:40;9.43;;;5.30;;
72517;SDS011;60540;51.178;6.738;2023-02-22T15:29:17;12.23;;;5.43;;
72517;SDS011;60540;51.178;6.738;2023-02-22T15:31:45;9.68;;;5.35;;
72517;SDS011;60540;51.178;6.738;2023-02-22T15:36:37;8.77;;;5.63;;
72517;SDS011;60540;51.178;6.738;2023-02-22T15:39:03;10.00;;;6.18;;
72517;SDS011;60540;51.178;6.738;2023-02-22T15:41:33;14.13;;;5.50;;
72517;SDS011;60540;51.178;6.738;2023-02-22T15:44:04;11.63;;;5.88;;
72517;SDS011;60540;51.178;6.738;2023-02-22T15:46:32;11.45;;;6.15;;
72517;SDS011;60540;51.178;6.738;2023-02-22T15:49:05;8.75;;;5.50;;
72517;SDS011;60540;51.178;6.738;2023-02-22T15:51:33;10.18;;;5.38;;
72517;SDS011;60540;51.178;6.738;2023-02-22T15:54:00;9.70;;;6.18;;
72517;SDS011;60540;51.178;6.738;2023-02-22T15:56:27;12.30;;;6.30;;
72517;SDS011;60540;51.178;6.738;2023-02-22T15:58:58;13.40;;;6.97;;
72517;SDS011;60540;51.178;6.738;2023-02-22T16:01:28;12.05;;;5.90;;
72517;SDS011;60540;51.178;6.738;2023-02-22T16:03:57;10.90;;;6.93;;
72517;SDS011;60540;51.178;6.738;2023-02-22T16:06:29;11.48;;;6.68;;
72517;SDS011;60540;51.178;6.738;2023-02-22T16:08:58;12.25;;;6.50;;
72517;SDS011;60540;51.178;6.738;2023-02-22T16:11:28;10.13;;;6.35;;
72517;SDS011;60540;51.178;6.738;2023-02-22T16:16:27;10.85;;;6.13;;
72517;SDS011;60540;51.178;6.738;2023-02-22T16:21:55;10.75;;;6.88;;
72517;SDS011;60540;51.178;6.738;2023-02-22T16:24:26;11.02;;;6.25;;
72517;SDS011;60540;51.178;6.738;2023-02-22T16:27:04;12.73;;;6.72;;
72517;SDS011;60540;51.178;6.738;2023-02-22T16:29:43;10.93;;;7.05;;
72517;SDS011;60540;51.178;6.738;2023-02-22T16:32:10;12.25;;;6.38;;
72517;SDS011;60540;51.178;6.738;2023-02-22T16:34:36;10.55;;;6.30;;
72517;SDS011;60540;51.178;6.738;2023-02-22T16:37:01;10.85;;;6.10;;
72517;SDS011;60540;51.178;6.738;2023-02-22T16:39:28;10.50;;;6.35;;
72517;SDS011;60540;51.178;6.738;2023-02-22T16:41:59;13.95;;;6.75;;
72517;SDS011;60540;51.178;6.738;2023-02-22T16:44:26;12.00;;;6.45;;
72517;SDS011;60540;51.178;6.738;2023-02-22T16:46:52;12.90;;;7.10;;
72517;SDS011;60540;51.178;6.738;2023-02-22T16:49:19;10.40;;;6.38;;
72517;SDS011;60540;51.178;6.738;2023-02-22T16:51:51;10.07;;;6.50;;
72517;SDS011;60540;51.178;6.738;2023-02-22T16:54:24;13.95;;;6.72;;
72517;SDS011;60540;51.178;6.738;2023-02-22T16:56:51;12.48;;;7.43;;
72517;SDS011;60540;51.178;6.738;2023-02-22T16:59:19;11.73;;;6.25;;
72517;SDS011;60540;51.178;6.738;2023-02-22T17:01:45;13.77;;;6.75;;
72517;SDS011;60540;51.178;6.738;2023-02-22T17:04:18;16.10;;;7.10;;
72517;SDS011;60540;51.178;6.738;2023-02-22T17:06:48;12.20;;;7.22;;
72517;SDS011;60540;51.178;6.738;2023-02-22T17:09:14;12.90;;;7.25;;
72517;SDS011;60540;51.178;6.738;2023-02-22T17:11:40;14.52;;;7.15;;
72517;SDS011;60540;51.178;6.738;2023-02-22T17:14:06;14.48;;;7.13;;
72517;SDS011;60540;51.178;6.738;2023-02-22T17:16:32;12.20;;;7.13;;
72517;SDS011;60540;51.178;6.738;2023-02-22T17:18:58;12.93;;;6.85;;
72517;SDS011;60540;51.178;6.738;2023-02-22T17:21:24;13.75;;;7.13;;
72517;SDS011;60540;51.178;6.738;2023-02-22T17:23:49;11.70;;;7.53;;
72517;SDS011;60540;51.178;6.738;2023-02-22T17:26:15;15.18;;;7.22;;
72517;SDS011;60540;51.178;6.738;2023-02-22T17:28:41;12.00;;;6.65;;
72517;SDS011;60540;51.178;6.738;2023-02-22T17:31:09;12.82;;;7.50;;
72517;SDS011;60540;51.178;6.738;2023-02-22T17:33:42;13.50;;;7.15;;
72517;SDS011;60540;51.178;6.738;2023-02-22T17:36:09;15.40;;;7.47;;
72517;SDS011;60540;51.178;6.738;2023-02-22T17:38:35;13.75;;;7.63;;
72517;SDS011;60540;51.178;6.738;2023-02-22T17:41:00;15.18;;;7.78;;
72517;SDS011;60540;51.178;6.738;2023-02-22T17:43:27;12.70;;;7.55;;
72517;SDS011;60540;51.178;6.738;2023-02-22T17:45:54;14.05;;;8.15;;
72517;SDS011;60540;51.178;6.738;2023-02-22T17:48:20;13.95;;;8.05;;